createdAt,value
2024-02-08T00:01:23.370Z,99883.72
2024-02-08T00:04:11.138Z,99892.13
2024-02-08T00:06:58.831Z,99896.47
2024-02-08T00:09:46.607Z,99896.97
2024-02-08T00:12:34.256Z,99896.72
2024-02-08T00:15:21.977Z,99899.31
2024-02-08T00:18:09.918Z,99905.78
2024-02-08T00:20:57.654Z,99907.31
2024-02-08T00:23:45.344Z,99905.25
2024-02-08T00:26:33.070Z,99903.19
2024-02-08T00:29:20.777Z,99914.28
2024-02-08T00:32:09.234Z,99906.06
2024-02-08T00:34:57.180Z,99906.81
2024-02-08T00:37:51.279Z,99910.78
2024-02-08T00:40:39.584Z,99904.94
2024-02-08T00:43:27.258Z,99914.16
2024-02-08T00:46:14.877Z,99917.88
2024-02-08T00:49:02.614Z,99930.06
2024-02-08T00:51:50.452Z,99929.34
2024-02-08T00:54:38.228Z,99923.69
2024-02-08T00:57:25.918Z,99924.34
2024-02-08T01:00:14.085Z,99926.88
2024-02-08T01:03:01.791Z,99924.00
2024-02-08T01:05:52.847Z,99919.66
2024-02-08T01:08:40.561Z,99920.16
2024-02-08T01:11:28.302Z,99921.31
2024-02-08T01:14:16.115Z,99925.03
2024-02-08T01:17:06.457Z,99930.38
2024-02-08T01:19:54.230Z,99937.50
2024-02-08T01:22:43.237Z,99935.69
2024-02-08T01:25:31.058Z,99942.69
2024-02-08T01:28:18.746Z,99940.25
2024-02-08T01:31:06.385Z,99943.28
2024-02-08T01:33:53.947Z,99940.03
2024-02-08T01:36:41.701Z,99933.06
2024-02-08T01:39:29.405Z,99935.38
2024-02-08T01:42:17.628Z,99932.41
2024-02-08T01:45:26.125Z,99938.50
2024-02-08T01:48:17.873Z,99930.94
2024-02-08T01:51:06.232Z,99925.00
2024-02-08T01:53:53.936Z,99922.66
2024-02-08T01:56:45.844Z,99924.44
2024-02-08T01:59:33.596Z,99903.88
2024-02-08T02:02:23.492Z,99907.44
2024-02-08T02:05:18.698Z,99907.88
2024-02-08T02:08:07.172Z,99912.03
2024-02-08T02:11:12.336Z,99926.88
2024-02-08T02:14:00.336Z,99923.09
2024-02-08T02:16:52.462Z,99916.38
2024-02-08T02:19:41.426Z,99915.06
2024-02-08T02:22:33.351Z,99911.19
2024-02-08T02:25:20.972Z,99913.25
2024-02-08T02:28:11.456Z,99933.44
2024-02-08T02:30:59.648Z,99928.81
2024-02-08T02:33:48.340Z,99942.22
2024-02-08T02:36:36.245Z,99941.50
2024-02-08T02:39:27.223Z,99941.28
2024-02-08T02:42:15.946Z,99942.25
2024-02-08T02:45:03.714Z,99947.91
2024-02-08T02:47:54.937Z,99942.38
2024-02-08T02:50:43.716Z,99946.34
2024-02-08T02:53:31.903Z,99953.69
2024-02-08T02:56:21.045Z,99964.66
2024-02-08T02:59:08.923Z,99948.97
2024-02-08T03:01:57.303Z,99946.28
2024-02-08T03:04:45.066Z,99952.81
2024-02-08T03:07:33.023Z,99952.81
2024-02-08T03:10:22.539Z,99956.66
2024-02-08T03:13:11.865Z,99948.06
2024-02-08T03:15:59.593Z,99949.28
2024-02-08T03:18:50.446Z,99946.41
2024-02-08T03:21:41.489Z,99944.44
2024-02-08T03:24:37.328Z,99938.00
2024-02-08T03:27:25.980Z,99930.09
2024-02-08T03:30:20.771Z,99945.97
2024-02-08T03:33:17.220Z,99943.09
2024-02-08T03:36:08.189Z,99940.41
2024-02-08T03:38:56.132Z,99942.31
2024-02-08T03:41:43.775Z,99935.25
2024-02-08T03:44:31.973Z,99937.16
2024-02-08T03:47:20.220Z,99937.38
2024-02-08T03:50:08.162Z,99938.75
2024-02-08T03:52:55.969Z,99946.19
2024-02-08T03:55:45.502Z,99944.66
2024-02-08T03:58:33.584Z,99942.53
2024-02-08T04:01:22.651Z,99945.72
2024-02-08T04:04:14.651Z,99946.94
2024-02-08T04:07:23.895Z,99950.25
2024-02-08T04:10:20.041Z,99958.66
2024-02-08T04:13:26.392Z,99948.97
2024-02-08T04:16:32.531Z,99949.59
2024-02-08T04:19:39.167Z,99942.28
2024-02-08T04:22:45.552Z,99942.09
2024-02-08T04:25:51.724Z,99939.03
2024-02-08T04:28:58.246Z,99938.66
2024-02-08T04:32:07.781Z,99936.28
2024-02-08T04:35:14.371Z,99931.81
2024-02-08T04:38:20.685Z,99918.84
2024-02-08T04:41:27.240Z,99926.38
2024-02-08T04:44:33.745Z,99915.47
2024-02-08T04:47:40.092Z,99914.94
2024-02-08T04:50:46.562Z,99913.34
2024-02-08T04:53:46.603Z,99914.34
2024-02-08T04:56:34.285Z,99912.94
2024-02-08T04:59:23.671Z,99918.59
2024-02-08T05:02:12.138Z,99927.50
2024-02-08T05:04:59.909Z,99927.25
2024-02-08T05:07:50.213Z,99922.31
2024-02-08T05:10:38.020Z,99937.34
2024-02-08T05:13:27.118Z,99925.53
2024-02-08T05:16:17.914Z,99914.88
2024-02-08T05:19:05.854Z,99908.97
2024-02-08T05:22:00.544Z,99906.84
2024-02-08T05:24:48.609Z,99907.09
2024-02-08T05:27:36.260Z,99916.38
2024-02-08T05:30:24.099Z,99908.59
2024-02-08T05:33:16.711Z,99912.88
2024-02-08T05:36:08.413Z,99917.34
2024-02-08T05:38:58.052Z,99915.44
2024-02-08T05:41:46.228Z,99914.16
2024-02-08T05:44:34.361Z,99923.09
2024-02-08T05:47:27.625Z,99912.19
2024-02-08T05:50:25.910Z,99915.63
2024-02-08T05:53:17.109Z,99913.72
2024-02-08T05:56:09.439Z,99917.81
2024-02-08T05:59:02.582Z,99913.16
2024-02-08T06:01:51.869Z,99923.59
2024-02-08T06:04:42.414Z,99909.22
2024-02-08T06:07:32.497Z,99906.63
2024-02-08T06:10:24.135Z,99904.47
2024-02-08T06:13:16.853Z,99910.34
2024-02-08T06:16:16.196Z,99905.94
2024-02-08T06:19:04.274Z,99905.28
2024-02-08T06:22:09.532Z,99905.50
2024-02-08T06:25:10.010Z,99904.00
2024-02-08T06:27:59.393Z,99908.72
2024-02-08T06:30:49.661Z,99905.88
2024-02-08T06:33:56.564Z,99906.78
2024-02-08T06:37:00.289Z,99914.09
2024-02-08T06:39:57.687Z,99913.25
2024-02-08T06:43:05.931Z,99914.09
2024-02-08T06:45:54.560Z,99920.44
2024-02-08T06:48:42.692Z,99916.03
2024-02-08T06:51:49.288Z,99921.53
2024-02-08T06:54:55.390Z,99922.66
2024-02-08T06:58:02.121Z,99928.53
2024-02-08T07:01:08.599Z,99924.16
2024-02-08T07:04:14.764Z,99926.41
2024-02-08T07:07:21.513Z,99934.19
2024-02-08T07:10:27.777Z,99930.31
2024-02-08T07:13:34.205Z,99929.97
2024-02-08T07:16:40.397Z,99922.91
2024-02-08T07:19:46.964Z,99915.63
2024-02-08T07:22:53.316Z,99916.84
2024-02-08T07:25:59.917Z,99923.53
2024-02-08T07:29:06.282Z,99917.06
2024-02-08T07:32:12.916Z,99917.53
2024-02-08T07:35:20.258Z,99909.91
2024-02-08T07:38:09.002Z,99912.03
2024-02-08T07:40:56.901Z,99921.94
2024-02-08T07:43:51.950Z,99921.38
2024-02-08T07:46:41.560Z,99925.97
2024-02-08T07:49:46.010Z,99926.88
2024-02-08T07:52:47.641Z,99934.31
2024-02-08T07:55:35.926Z,99935.44
2024-02-08T07:58:28.513Z,99922.81
2024-02-08T08:01:19.897Z,99930.69
2024-02-08T08:04:10.985Z,99938.19
2024-02-08T08:07:02.194Z,99937.91
2024-02-08T08:10:08.729Z,99934.75
2024-02-08T08:12:56.935Z,99928.72
2024-02-08T08:16:10.654Z,99923.16
2024-02-08T08:18:59.166Z,99927.75
2024-02-08T08:21:59.239Z,99932.59
2024-02-08T08:25:10.339Z,99933.59
2024-02-08T08:28:31.504Z,99937.25
2024-02-08T08:31:52.582Z,99936.78
2024-02-08T08:34:59.853Z,99934.41
2024-02-08T08:37:47.657Z,99926.66
2024-02-08T08:40:42.085Z,99934.78
2024-02-08T08:43:33.347Z,99938.06
2024-02-08T08:46:22.515Z,99941.94
2024-02-08T08:49:15.638Z,99947.31
2024-02-08T08:52:05.914Z,99949.97
2024-02-08T08:55:13.049Z,99949.94
2024-02-08T08:58:05.072Z,99954.34
2024-02-08T09:01:15.048Z,99952.78
2024-02-08T09:04:24.253Z,99958.38
2024-02-08T09:07:13.197Z,99959.25
2024-02-08T09:10:05.376Z,99953.06
2024-02-08T09:13:08.086Z,99967.19
2024-02-08T09:15:57.755Z,99966.00
2024-02-08T09:19:01.136Z,99964.59
2024-02-08T09:21:51.301Z,99974.56
2024-02-08T09:24:43.688Z,99967.59
2024-02-08T09:27:35.513Z,99966.75
2024-02-08T09:30:39.742Z,99966.88
2024-02-08T09:33:54.031Z,99971.41
2024-02-08T09:36:44.012Z,99972.00
2024-02-08T09:39:51.588Z,99965.28
2024-02-08T09:42:39.566Z,99965.78
2024-02-08T09:45:34.210Z,99970.09
2024-02-08T09:48:38.199Z,99966.28
2024-02-08T09:51:26.247Z,99960.16
2024-02-08T09:54:17.211Z,99965.88
2024-02-08T09:57:24.211Z,99956.97
2024-02-08T10:00:32.202Z,99957.09
2024-02-08T10:03:33.653Z,99954.53
2024-02-08T10:06:26.103Z,99956.25
2024-02-08T10:09:33.464Z,99958.91
2024-02-08T10:12:32.039Z,99956.00
2024-02-08T10:15:27.308Z,99958.50
2024-02-08T10:18:24.515Z,99951.34
2024-02-08T10:21:18.967Z,99954.28
2024-02-08T10:24:25.124Z,99949.50
2024-02-08T10:27:22.318Z,99949.41
2024-02-08T10:30:10.952Z,99961.50
2024-02-08T10:33:00.156Z,99960.75
2024-02-08T10:35:49.195Z,99957.22
2024-02-08T10:38:56.278Z,99966.53
2024-02-08T10:41:58.877Z,99955.53
2024-02-08T10:44:47.198Z,99951.84
2024-02-08T10:47:42.092Z,99949.13
2024-02-08T10:50:32.557Z,99952.31
2024-02-08T10:53:41.085Z,99936.72
2024-02-08T10:56:42.446Z,99934.94
2024-02-08T10:59:53.276Z,99935.94
2024-02-08T11:03:01.752Z,99935.72
2024-02-08T11:06:02.290Z,99925.69
2024-02-08T11:08:52.257Z,99919.41
2024-02-08T11:11:42.150Z,99927.44
2024-02-08T11:14:30.706Z,99923.75
2024-02-08T11:17:23.398Z,99934.75
2024-02-08T11:20:18.563Z,99935.88
2024-02-08T11:23:10.913Z,99930.34
2024-02-08T11:26:07.834Z,99933.00
2024-02-08T11:29:06.417Z,99931.28
2024-02-08T11:31:57.251Z,99934.72
2024-02-08T11:34:47.119Z,99929.34
2024-02-08T11:37:39.548Z,99925.09
2024-02-08T11:40:30.847Z,99931.75
2024-02-08T11:43:21.223Z,99936.44
2024-02-08T11:46:19.723Z,99934.75
2024-02-08T11:49:16.691Z,99930.34
2024-02-08T11:52:08.587Z,99924.84
2024-02-08T11:55:15.812Z,99925.69
2024-02-08T11:58:11.329Z,99923.97
2024-02-08T12:00:59.840Z,99921.28
2024-02-08T12:03:51.167Z,99914.66
2024-02-08T12:06:47.758Z,99909.66
2024-02-08T12:09:39.872Z,99904.91
2024-02-08T12:12:27.499Z,99905.13
2024-02-08T12:15:17.852Z,99898.03
2024-02-08T12:18:07.930Z,99892.72
2024-02-08T12:21:03.256Z,99889.63
2024-02-08T12:23:54.721Z,99895.00
2024-02-08T12:26:43.561Z,99884.63
2024-02-08T12:29:31.362Z,99874.63
2024-02-08T12:32:19.477Z,99879.25
2024-02-08T12:35:15.253Z,99875.34
2024-02-08T12:38:04.454Z,99875.34
2024-02-08T12:40:52.317Z,99873.53
2024-02-08T12:43:44.069Z,99870.50
2024-02-08T12:46:32.854Z,99871.31
2024-02-08T12:49:20.831Z,99865.13
2024-02-08T12:52:11.028Z,99858.72
2024-02-08T12:55:01.836Z,99862.66
2024-02-08T12:58:04.293Z,99854.84
2024-02-08T13:00:57.959Z,99851.78
2024-02-08T13:03:45.656Z,99842.59
2024-02-08T13:06:33.684Z,99843.34
2024-02-08T13:09:28.524Z,99842.63
2024-02-08T13:12:18.836Z,99837.72
2024-02-08T13:15:11.238Z,99842.88
2024-02-08T13:17:59.146Z,99833.78
2024-02-08T13:20:48.821Z,99840.66
2024-02-08T13:23:38.212Z,99842.38
2024-02-08T13:26:33.102Z,99838.09
2024-02-08T13:29:27.565Z,99830.34
2024-02-08T13:32:17.451Z,99824.25
2024-02-08T13:35:05.398Z,99831.97
2024-02-08T13:37:55.156Z,99824.75
2024-02-08T13:40:48.770Z,99824.28
2024-02-08T13:43:40.439Z,99815.25
2024-02-08T13:46:31.887Z,99814.97
2024-02-08T13:49:23.007Z,99815.94
2024-02-08T13:52:11.236Z,99816.09
2024-02-08T13:55:00.077Z,99810.34
2024-02-08T13:57:54.130Z,99816.34
2024-02-08T14:00:43.117Z,99814.28
2024-02-08T14:03:31.961Z,99805.25
2024-02-08T14:06:27.325Z,99798.66
2024-02-08T14:09:22.140Z,99804.97
2024-02-08T14:12:09.871Z,99804.00
2024-02-08T14:14:59.370Z,99796.41
2024-02-08T14:17:55.599Z,99798.38
2024-02-08T14:20:53.909Z,99791.75
2024-02-08T14:23:50.270Z,99789.94
2024-02-08T14:26:44.786Z,99801.81
2024-02-08T14:29:36.417Z,99797.13
2024-02-08T14:32:28.701Z,99786.63
2024-02-08T14:35:23.467Z,99784.94
2024-02-08T14:38:11.058Z,99780.75
2024-02-08T14:41:01.086Z,99784.19
2024-02-08T14:43:54.690Z,99780.75
2024-02-08T14:46:43.465Z,99777.09
2024-02-08T14:49:31.899Z,99763.88
2024-02-08T14:52:26.073Z,99768.28
2024-02-08T14:55:22.498Z,99767.22
2024-02-08T14:58:31.360Z,99760.97
2024-02-08T15:01:39.038Z,99757.53
2024-02-08T15:04:27.417Z,99760.72
2024-02-08T15:07:33.538Z,99770.94
2024-02-08T15:10:43.936Z,99774.91
2024-02-08T15:13:47.152Z,99773.19
2024-02-08T15:16:35.409Z,99772.22
2024-02-08T15:19:27.727Z,99772.81
2024-02-08T15:22:28.733Z,99763.41
2024-02-08T15:25:19.085Z,99758.75
2024-02-08T15:28:26.877Z,99758.03
2024-02-08T15:31:37.489Z,99767.31
2024-02-08T15:34:44.022Z,99757.81
2024-02-08T15:37:43.240Z,99765.38
2024-02-08T15:40:32.604Z,99764.84
2024-02-08T15:43:20.813Z,99759.75
2024-02-08T15:46:12.077Z,99760.94
2024-02-08T15:49:01.564Z,99760.97
2024-02-08T15:51:51.068Z,99750.44
2024-02-08T15:54:39.764Z,99752.41
2024-02-08T15:57:31.457Z,99752.91
2024-02-08T16:00:37.781Z,99751.66
2024-02-08T16:03:27.401Z,99751.19
2024-02-08T16:06:33.892Z,99755.47
2024-02-08T16:09:28.616Z,99750.44
2024-02-08T16:12:20.362Z,99755.09
2024-02-08T16:15:18.740Z,99748.56
2024-02-08T16:18:23.997Z,99749.00
2024-02-08T16:21:17.858Z,99750.19
2024-02-08T16:24:14.837Z,99748.59
2024-02-08T16:27:08.648Z,99757.75
2024-02-08T16:30:09.549Z,99752.66
2024-02-08T16:32:57.864Z,99754.09
2024-02-08T16:36:00.643Z,99753.09
2024-02-08T16:38:59.296Z,99759.22
2024-02-08T16:41:49.946Z,99750.44
2024-02-08T16:44:52.296Z,99741.91
2024-02-08T16:47:53.270Z,99740.59
2024-02-08T16:50:47.355Z,99757.75
2024-02-08T16:53:35.466Z,99754.78
2024-02-08T16:56:23.408Z,99759.47
2024-02-08T16:59:16.742Z,99763.13
2024-02-08T17:02:13.638Z,99769.22
2024-02-08T17:05:11.302Z,99766.38
2024-02-08T17:08:05.431Z,99769.25
2024-02-08T17:11:02.819Z,99768.38
2024-02-08T17:13:53.649Z,99764.84
2024-02-08T17:16:47.264Z,99750.94
2024-02-08T17:19:35.134Z,99747.38
2024-02-08T17:22:41.430Z,99748.72
2024-02-08T17:25:42.968Z,99742.88
2024-02-08T17:28:37.449Z,99742.06
2024-02-08T17:31:35.085Z,99747.34
2024-02-08T17:34:24.102Z,99738.41
2024-02-08T17:37:18.967Z,99742.06
2024-02-08T17:40:18.269Z,99741.94
2024-02-08T17:43:10.542Z,99747.00
2024-02-08T17:46:04.243Z,99743.31
2024-02-08T17:48:55.846Z,99741.13
2024-02-08T17:51:51.152Z,99744.97
2024-02-08T17:54:53.391Z,99746.56
2024-02-08T17:57:43.381Z,99745.03
2024-02-08T18:00:31.140Z,99732.06
2024-02-08T18:03:27.004Z,99740.84
2024-02-08T18:06:18.256Z,99734.75
2024-02-08T18:09:06.268Z,99734.66
2024-02-08T18:11:54.071Z,99733.81
2024-02-08T18:14:45.275Z,99731.38
2024-02-08T18:17:35.676Z,99735.81
2024-02-08T18:20:23.699Z,99736.53
2024-02-08T18:23:11.346Z,99744.06
2024-02-08T18:25:58.993Z,99745.72
2024-02-08T18:28:47.029Z,99748.66
2024-02-08T18:31:36.203Z,99751.16
2024-02-08T18:34:24.315Z,99745.91
2024-02-08T18:37:13.108Z,99751.19
2024-02-08T18:40:00.992Z,99749.22
2024-02-08T18:42:50.489Z,99749.94
2024-02-08T18:45:38.941Z,99746.75
2024-02-08T18:48:30.236Z,99751.19
2024-02-08T18:51:17.981Z,99752.16
2024-02-08T18:54:12.751Z,99754.13
2024-02-08T18:57:04.755Z,99748.25
2024-02-08T18:59:52.831Z,99759.97
2024-02-08T19:02:40.887Z,99749.31
2024-02-08T19:05:29.280Z,99757.75
2024-02-08T19:08:20.000Z,99758.63
2024-02-08T19:11:08.621Z,99759.75
2024-02-08T19:13:58.283Z,99761.94
2024-02-08T19:16:46.126Z,99745.56
2024-02-08T19:19:35.527Z,99745.06
2024-02-08T19:22:24.820Z,99745.34
2024-02-08T19:25:15.496Z,99740.19
2024-02-08T19:28:07.866Z,99750.59
2024-02-08T19:30:57.176Z,99746.78
2024-02-08T19:36:38.525Z,99757.03
2024-02-08T19:39:29.179Z,99747.72
2024-02-08T19:42:20.973Z,99748.28
2024-02-08T19:45:24.348Z,99750.44
2024-02-08T19:48:19.243Z,99754.63
2024-02-08T19:51:10.401Z,99754.25
2024-02-08T19:54:00.497Z,99749.97
2024-02-08T19:56:49.206Z,99756.78
2024-02-08T19:59:40.860Z,99757.03
2024-02-08T20:02:29.287Z,99759.25
2024-02-08T20:05:23.664Z,99758.28
2024-02-08T20:08:12.163Z,99765.38
2024-02-08T20:11:00.125Z,99753.63
2024-02-08T20:13:48.882Z,99761.94
2024-02-08T20:16:39.183Z,99754.41
2024-02-08T20:19:28.450Z,99760.50
2024-02-08T20:22:19.248Z,99769.03
2024-02-08T20:25:07.118Z,99764.13
2024-02-08T20:27:55.423Z,99763.19
2024-02-08T20:30:50.301Z,99766.22
2024-02-08T20:33:38.920Z,99770.13
2024-02-08T20:36:26.747Z,99773.91
2024-02-08T20:39:20.262Z,99779.56
2024-02-08T20:42:13.684Z,99778.28
2024-02-08T20:45:01.619Z,99784.09
2024-02-08T20:47:50.365Z,99792.97
2024-02-08T20:50:41.718Z,99789.31
2024-02-08T20:53:31.649Z,99788.34
2024-02-08T20:56:27.243Z,99796.66
2024-02-08T20:59:15.744Z,99793.00
2024-02-08T21:02:04.252Z,99776.34
2024-02-08T21:04:52.642Z,99789.56
2024-02-08T21:07:41.112Z,99790.53
2024-02-08T21:10:29.828Z,99796.13
2024-02-08T21:13:18.689Z,99796.88
2024-02-08T21:16:06.970Z,99799.47
2024-02-08T21:18:54.699Z,99800.31
2024-02-08T21:21:42.777Z,99806.44
2024-02-08T21:24:31.340Z,99798.59
2024-02-08T21:27:21.529Z,99810.84
2024-02-08T21:30:12.721Z,99801.19
2024-02-08T21:33:00.441Z,99805.22
2024-02-08T21:35:48.194Z,99810.84
2024-02-08T21:38:36.166Z,99813.91
2024-02-08T21:41:23.911Z,99810.56
2024-02-08T21:44:11.645Z,99806.56
2024-02-08T21:46:59.844Z,99810.63
2024-02-08T21:49:48.225Z,99813.78
2024-02-08T21:52:39.139Z,99827.72
2024-02-08T21:55:26.858Z,99817.66
2024-02-08T21:58:14.802Z,99823.19
2024-02-08T22:04:09.320Z,99823.56
2024-02-08T22:06:57.403Z,99828.94
2024-02-08T22:09:52.619Z,99825.25
2024-02-08T22:12:46.639Z,99826.00
2024-02-08T22:15:34.975Z,99829.16
2024-02-08T22:18:25.474Z,99831.88
2024-02-08T22:21:19.427Z,99832.34
2024-02-08T22:24:09.528Z,99834.53
2024-02-08T22:26:59.196Z,99829.66
2024-02-08T22:29:46.987Z,99835.50
2024-02-08T22:32:37.050Z,99841.38
2024-02-08T22:35:24.855Z,99846.50
2024-02-08T22:38:13.607Z,99838.56
2024-02-08T22:41:01.713Z,99839.66
2024-02-08T22:43:49.446Z,99842.59
2024-02-08T22:46:37.623Z,99844.09
2024-02-08T22:49:26.629Z,99851.63
2024-02-08T22:52:14.790Z,99847.75
2024-02-08T22:55:04.628Z,99852.38
2024-02-08T22:57:56.962Z,99848.88
2024-02-08T23:00:50.947Z,99851.66
2024-02-08T23:03:38.704Z,99850.78
2024-02-08T23:06:32.032Z,99848.44
2024-02-08T23:09:21.300Z,99849.88
2024-02-08T23:12:12.016Z,99850.19
2024-02-08T23:14:59.736Z,99860.06
2024-02-08T23:18:05.911Z,99855.56
2024-02-08T23:20:55.035Z,99857.91
2024-02-08T23:23:42.942Z,99857.28
2024-02-08T23:26:30.704Z,99867.06
2024-02-08T23:29:19.606Z,99866.31
2024-02-08T23:32:11.147Z,99869.75
2024-02-08T23:34:59.052Z,99866.19
2024-02-08T23:37:47.624Z,99869.50
2024-02-08T23:40:35.482Z,99871.19
2024-02-08T23:43:23.330Z,99875.00
2024-02-08T23:46:10.990Z,99880.25
2024-02-08T23:48:59.092Z,99885.84
2024-02-08T23:51:48.803Z,99882.19
2024-02-08T23:54:40.756Z,99877.06
2024-02-08T23:57:30.426Z,99881.22
